createdAt,value
2022-09-28T00:01:26.252Z,7.58
2022-09-28T00:03:58.172Z,7.58
2022-09-28T00:06:28.515Z,7.54
2022-09-28T00:08:56.803Z,7.56
2022-09-28T00:11:28.404Z,7.69
2022-09-28T00:14:01.915Z,7.66
2022-09-28T00:16:35.508Z,7.63
2022-09-28T00:19:03.156Z,7.62
2022-09-28T00:21:33.737Z,7.70
2022-09-28T00:24:12.560Z,7.68
2022-09-28T00:26:47.130Z,7.85
2022-09-28T00:29:34.857Z,7.74
2022-09-28T00:32:09.700Z,7.59
2022-09-28T00:34:41.309Z,7.71
2022-09-28T00:37:09.331Z,7.70
2022-09-28T00:39:38.188Z,7.60
2022-09-28T00:42:15.940Z,7.60
2022-09-28T00:44:44.293Z,7.55
2022-09-28T00:47:26.588Z,7.63
2022-09-28T00:50:03.499Z,7.56
2022-09-28T00:52:40.889Z,7.49
2022-09-28T00:55:11.924Z,7.56
2022-09-28T00:57:42.200Z,7.53
2022-09-28T01:00:11.216Z,7.60
2022-09-28T01:02:39.974Z,7.63
2022-09-28T01:05:10.490Z,7.52
2022-09-28T01:07:38.018Z,7.46
2022-09-28T01:10:05.999Z,7.35
2022-09-28T01:12:33.301Z,7.27
2022-09-28T01:15:01.907Z,7.27
2022-09-28T01:17:45.168Z,7.15
2022-09-28T01:20:24.182Z,7.14
2022-09-28T01:23:32.210Z,7.09
2022-09-28T01:26:24.181Z,7.10
2022-09-28T01:28:59.388Z,7.07
2022-09-28T01:31:31.397Z,7.06
2022-09-28T01:34:11.248Z,7.02
2022-09-28T01:36:43.742Z,6.99
2022-09-28T01:39:28.559Z,6.99
2022-09-28T01:42:01.565Z,7.01
2022-09-28T01:44:32.873Z,7.02
2022-09-28T01:47:04.418Z,6.99
2022-09-28T01:49:38.272Z,7.05
2022-09-28T01:52:19.078Z,7.18
2022-09-28T01:55:19.137Z,7.17
2022-09-28T01:57:55.359Z,7.08
2022-09-28T02:00:25.083Z,7.27
2022-09-28T02:02:59.233Z,7.25
2022-09-28T02:05:38.787Z,7.12
2022-09-28T02:08:09.173Z,7.13
2022-09-28T02:10:56.089Z,7.28
2022-09-28T02:13:40.716Z,7.38
2022-09-28T02:16:27.048Z,7.45
2022-09-28T02:18:54.726Z,7.44
2022-09-28T02:21:21.832Z,7.26
2022-09-28T02:24:06.943Z,7.16
2022-09-28T02:26:42.534Z,7.10
2022-09-28T02:29:09.682Z,7.09
2022-09-28T02:31:36.873Z,7.12
2022-09-28T02:34:04.309Z,7.12
2022-09-28T02:36:33.937Z,7.22
2022-09-28T02:39:02.285Z,7.12
2022-09-28T02:41:45.926Z,7.05
2022-09-28T02:44:41.281Z,7.03
2022-09-28T02:47:41.672Z,6.98
2022-09-28T02:50:21.557Z,6.89
2022-09-28T02:53:19.082Z,6.91
2022-09-28T02:55:51.967Z,6.80
2022-09-28T02:58:59.071Z,6.68
2022-09-28T03:01:35.704Z,6.66
2022-09-28T03:04:21.601Z,6.69
2022-09-28T03:06:55.379Z,6.65
2022-09-28T03:09:47.393Z,6.52
2022-09-28T03:12:19.691Z,6.39
2022-09-28T03:15:08.054Z,6.41
2022-09-28T03:17:35.738Z,6.44
2022-09-28T03:20:04.768Z,6.50
2022-09-28T03:22:31.935Z,6.46
2022-09-28T03:24:59.332Z,6.52
2022-09-28T03:27:26.731Z,6.49
2022-09-28T03:29:53.883Z,6.49
2022-09-28T03:32:21.273Z,6.48
2022-09-28T03:34:48.592Z,6.41
2022-09-28T03:37:15.929Z,6.43
2022-09-28T03:39:43.270Z,6.46
2022-09-28T03:42:10.400Z,6.41
2022-09-28T03:44:41.584Z,6.40
2022-09-28T03:47:09.204Z,6.45
2022-09-28T03:49:37.137Z,6.54
2022-09-28T03:52:04.607Z,6.62
2022-09-28T03:54:31.832Z,6.63
2022-09-28T03:56:59.796Z,6.73
2022-09-28T03:59:27.187Z,6.75
2022-09-28T04:01:54.516Z,6.98
2022-09-28T04:04:21.732Z,6.87
2022-09-28T04:06:48.912Z,6.87
2022-09-28T04:09:16.777Z,6.85
2022-09-28T04:12:02.680Z,6.87
2022-09-28T04:14:30.972Z,6.99
2022-09-28T04:16:58.197Z,6.99
2022-09-28T04:19:27.830Z,6.99
2022-09-28T04:22:07.860Z,6.99
2022-09-28T04:24:35.323Z,6.96
2022-09-28T04:27:22.562Z,6.91
2022-09-28T04:29:49.790Z,6.92
2022-09-28T04:32:18.608Z,7.02
2022-09-28T04:34:45.784Z,7.05
2022-09-28T04:37:12.978Z,7.11
2022-09-28T04:39:43.934Z,6.99
2022-09-28T04:42:13.713Z,7.06
2022-09-28T04:44:40.828Z,7.00
2022-09-28T04:47:09.643Z,6.90
2022-09-28T04:49:55.497Z,7.06
2022-09-28T04:52:29.856Z,7.06
2022-09-28T04:54:57.084Z,7.08
2022-09-28T04:57:25.598Z,7.04
2022-09-28T04:59:52.704Z,6.97
2022-09-28T05:02:20.116Z,6.97
2022-09-28T05:05:06.327Z,6.90
2022-09-28T05:07:59.408Z,6.91
2022-09-28T05:10:26.744Z,6.91
2022-09-28T05:12:54.355Z,6.97
2022-09-28T05:15:21.546Z,6.91
2022-09-28T05:17:49.372Z,6.85
2022-09-28T05:20:31.083Z,6.91
2022-09-28T05:22:58.179Z,6.86
2022-09-28T05:25:25.493Z,6.88
2022-09-28T05:28:07.820Z,6.82
2022-09-28T05:30:46.857Z,6.79
2022-09-28T05:33:25.091Z,6.77
2022-09-28T05:36:04.185Z,6.81
2022-09-28T05:38:31.733Z,6.78
2022-09-28T05:41:01.154Z,6.79
2022-09-28T05:43:30.975Z,6.81
2022-09-28T05:45:59.347Z,6.91
2022-09-28T05:48:27.709Z,6.89
2022-09-28T05:50:55.205Z,7.00
2022-09-28T05:53:22.604Z,6.98
2022-09-28T05:55:49.812Z,6.94
2022-09-28T05:58:17.716Z,7.06
2022-09-28T06:00:45.087Z,7.17
2022-09-28T06:03:14.392Z,7.14
2022-09-28T06:05:41.902Z,7.20
2022-09-28T06:08:12.969Z,7.15
2022-09-28T06:10:44.646Z,7.17
2022-09-28T06:13:12.185Z,7.24
2022-09-28T06:15:42.944Z,7.22
2022-09-28T06:18:16.678Z,7.18
2022-09-28T06:21:05.878Z,7.19
2022-09-28T06:23:40.479Z,7.18
2022-09-28T06:26:08.448Z,7.24
2022-09-28T06:28:35.800Z,7.26
2022-09-28T06:31:03.426Z,7.34
2022-09-28T06:33:31.688Z,7.34
2022-09-28T06:35:59.622Z,7.28
2022-09-28T06:38:27.175Z,7.30
2022-09-28T06:40:54.521Z,7.30
2022-09-28T06:43:22.077Z,7.36
2022-09-28T06:46:10.501Z,7.43
2022-09-28T06:48:56.262Z,7.50
2022-09-28T06:51:49.517Z,7.50
2022-09-28T06:54:25.809Z,7.54
2022-09-28T06:57:13.283Z,7.72
2022-09-28T06:59:41.759Z,7.64
2022-09-28T07:02:14.299Z,7.60
2022-09-28T07:04:59.916Z,7.53
2022-09-28T07:07:40.427Z,7.64
2022-09-28T07:10:30.260Z,7.61
2022-09-28T07:13:42.875Z,7.64
2022-09-28T07:16:07.704Z,7.63
2022-09-28T07:18:35.948Z,7.70
2022-09-28T07:21:04.164Z,7.70
2022-09-28T07:23:33.637Z,7.70
2022-09-28T07:26:22.686Z,7.69
2022-09-28T07:29:05.075Z,7.69
2022-09-28T07:31:44.117Z,7.61
2022-09-28T07:34:28.027Z,7.58
2022-09-28T07:37:09.964Z,7.63
2022-09-28T07:39:58.421Z,7.68
2022-09-28T07:42:30.337Z,7.80
2022-09-28T07:44:58.530Z,7.74
2022-09-28T07:47:32.225Z,7.70
2022-09-28T07:50:29.970Z,7.69
2022-09-28T07:53:22.914Z,7.76
2022-09-28T07:56:04.504Z,7.66
2022-09-28T07:58:43.204Z,7.68
2022-09-28T08:01:45.256Z,7.87
2022-09-28T08:04:14.755Z,7.79
2022-09-28T08:06:45.088Z,7.71
2022-09-28T08:09:13.820Z,7.80
2022-09-28T08:11:59.713Z,7.83
2022-09-28T08:14:52.289Z,7.76
2022-09-28T08:17:47.214Z,7.74
2022-09-28T08:20:34.532Z,7.82
2022-09-28T08:23:09.109Z,7.72
2022-09-28T08:25:38.333Z,7.80
2022-09-28T08:28:09.671Z,7.76
2022-09-28T08:30:46.773Z,7.85
2022-09-28T08:33:37.335Z,7.82
2022-09-28T08:36:24.014Z,7.90
2022-09-28T08:39:09.768Z,7.94
2022-09-28T08:42:30.208Z,7.84
2022-09-28T08:45:23.430Z,7.90
2022-09-28T08:48:56.897Z,7.77
2022-09-28T08:51:57.231Z,7.75
2022-09-28T08:54:58.276Z,7.74
2022-09-28T08:57:45.877Z,7.63
2022-09-28T09:00:21.353Z,7.61
2022-09-28T09:02:49.089Z,7.66
2022-09-28T09:05:24.128Z,7.78
2022-09-28T09:08:07.736Z,7.88
2022-09-28T09:11:14.517Z,7.93
2022-09-28T09:14:13.479Z,8.07
2022-09-28T09:17:00.323Z,8.09
2022-09-28T09:19:54.725Z,8.00
2022-09-28T09:22:39.466Z,8.01
2022-09-28T09:25:20.353Z,7.95
2022-09-28T09:28:09.373Z,7.97
2022-09-28T09:31:06.648Z,8.01
2022-09-28T09:34:10.334Z,7.99
2022-09-28T09:37:17.906Z,7.87
2022-09-28T09:40:42.078Z,7.74
2022-09-28T09:43:42.659Z,7.64
2022-09-28T09:46:46.762Z,7.54
2022-09-28T09:49:45.751Z,7.50
2022-09-28T09:52:29.725Z,7.48
2022-09-28T09:55:03.266Z,7.42
2022-09-28T09:57:51.156Z,7.31
2022-09-28T10:00:43.287Z,7.27
2022-09-28T10:03:23.629Z,7.36
2022-09-28T10:06:03.890Z,7.47
2022-09-28T10:08:37.880Z,7.31
2022-09-28T10:11:13.134Z,7.25
2022-09-28T10:13:44.729Z,7.24
2022-09-28T10:16:33.267Z,7.02
2022-09-28T10:19:01.732Z,6.95
2022-09-28T10:21:51.796Z,6.85
2022-09-28T10:24:45.225Z,6.84
2022-09-28T10:27:16.830Z,6.82
2022-09-28T10:30:16.576Z,6.60
2022-09-28T10:32:47.496Z,6.57
2022-09-28T10:35:41.570Z,6.53
2022-09-28T10:38:18.685Z,6.54
2022-09-28T10:41:01.593Z,6.50
2022-09-28T10:44:06.974Z,6.48
2022-09-28T10:46:44.972Z,6.56
2022-09-28T10:49:18.062Z,6.51
2022-09-28T10:51:56.255Z,6.46
2022-09-28T10:54:32.025Z,6.32
2022-09-28T10:57:01.221Z,6.31
2022-09-28T10:59:51.907Z,6.37
2022-09-28T11:02:40.080Z,6.38
2022-09-28T11:05:23.844Z,6.48
2022-09-28T11:07:55.912Z,6.52
2022-09-28T11:10:31.057Z,6.55
2022-09-28T11:13:09.558Z,6.70
2022-09-28T11:15:43.421Z,6.90
2022-09-28T11:18:25.677Z,6.81
2022-09-28T11:21:09.410Z,6.82
2022-09-28T11:23:39.089Z,6.92
2022-09-28T11:26:18.967Z,6.99
2022-09-28T11:28:51.676Z,7.07
2022-09-28T11:31:30.037Z,7.13
2022-09-28T11:34:07.190Z,7.18
2022-09-28T11:37:09.725Z,7.19
2022-09-28T11:39:59.174Z,7.28
2022-09-28T11:42:51.594Z,7.33
2022-09-28T11:45:43.407Z,7.57
2022-09-28T11:48:25.785Z,7.78
2022-09-28T11:51:04.176Z,7.94
2022-09-28T11:53:37.039Z,8.04
2022-09-28T11:56:28.977Z,8.42
2022-09-28T11:59:04.095Z,8.83
2022-09-28T12:01:53.362Z,9.13
2022-09-28T12:04:40.900Z,9.42
2022-09-28T12:07:44.802Z,9.40
2022-09-28T12:10:36.939Z,9.02
2022-09-28T12:13:14.362Z,8.81
2022-09-28T12:18:49.300Z,8.65
2022-09-28T12:21:28.124Z,8.44
2022-09-28T12:24:14.208Z,8.46
2022-09-28T12:26:58.809Z,8.52
2022-09-28T12:29:44.062Z,8.75
2022-09-28T12:32:14.354Z,8.73
2022-09-28T12:34:43.086Z,8.70
2022-09-28T12:37:38.489Z,8.75
2022-09-28T12:40:23.993Z,9.08
2022-09-28T12:43:40.633Z,9.46
2022-09-28T12:46:37.243Z,9.58
2022-09-28T12:50:20.185Z,9.30
2022-09-28T12:52:21.302Z,8.88
2022-09-28T12:55:02.886Z,8.65
2022-09-28T12:57:56.560Z,8.36
2022-09-28T13:00:28.875Z,8.18
2022-09-28T13:03:09.603Z,8.03
2022-09-28T13:06:08.261Z,8.08
2022-09-28T13:08:49.216Z,8.57
2022-09-28T13:11:47.014Z,8.92
2022-09-28T13:14:51.278Z,8.99
2022-09-28T13:17:44.378Z,8.99
2022-09-28T13:20:25.243Z,8.71
2022-09-28T13:23:16.802Z,8.62
2022-09-28T13:25:50.204Z,8.35
2022-09-28T13:28:24.981Z,8.18
2022-09-28T13:33:44.071Z,8.01
2022-09-28T13:36:29.539Z,8.14
2022-09-28T13:38:59.456Z,8.33
2022-09-28T13:41:38.076Z,8.42
2022-09-28T13:44:11.642Z,8.51
2022-09-28T13:47:04.655Z,8.43
2022-09-28T13:49:32.626Z,8.40
2022-09-28T13:52:06.726Z,8.36
2022-09-28T13:54:52.633Z,8.22
2022-09-28T13:57:27.690Z,8.13
2022-09-28T14:00:22.816Z,8.11
2022-09-28T14:03:01.557Z,8.06
2022-09-28T14:06:02.889Z,8.13
2022-09-28T14:08:34.693Z,8.04
2022-09-28T14:11:35.971Z,7.97
2022-09-28T14:14:06.119Z,7.88
2022-09-28T14:16:35.780Z,7.88
2022-09-28T14:19:28.810Z,7.78
2022-09-28T14:22:11.304Z,7.58
2022-09-28T14:25:02.087Z,7.43
2022-09-28T14:27:51.368Z,7.41
2022-09-28T14:30:26.409Z,7.25
2022-09-28T14:32:59.180Z,7.26
2022-09-28T14:35:34.209Z,7.26
2022-09-28T14:38:32.445Z,7.34
2022-09-28T14:41:11.567Z,7.35
2022-09-28T14:43:44.917Z,7.42
2022-09-28T14:46:15.778Z,7.55
2022-09-28T14:49:01.830Z,7.58
2022-09-28T14:51:33.840Z,7.93
2022-09-28T14:54:13.194Z,8.40
2022-09-28T14:56:45.974Z,8.87
2022-09-28T14:59:18.817Z,9.15
2022-09-28T15:02:06.427Z,9.27
2022-09-28T15:04:35.743Z,8.97
2022-09-28T15:07:02.842Z,9.07
2022-09-28T15:09:32.570Z,8.87
2022-09-28T15:12:03.751Z,8.74
2022-09-28T15:14:36.111Z,8.62
2022-09-28T15:17:10.587Z,8.44
2022-09-28T15:19:50.254Z,8.28
2022-09-28T15:22:18.532Z,8.43
2022-09-28T15:25:02.226Z,8.38
2022-09-28T15:27:37.202Z,8.20
2022-09-28T15:30:24.213Z,8.20
2022-09-28T15:32:54.748Z,8.28
2022-09-28T15:35:25.628Z,8.21
2022-09-28T15:37:55.359Z,8.21
2022-09-28T15:40:38.716Z,8.06
2022-09-28T15:43:29.566Z,8.10
2022-09-28T15:46:17.654Z,8.11
2022-09-28T15:48:55.274Z,8.15
2022-09-28T15:51:24.548Z,8.00
2022-09-28T15:53:58.409Z,7.99
2022-09-28T15:56:27.083Z,7.95
2022-09-28T15:59:18.994Z,7.92
2022-09-28T16:01:46.137Z,7.86
2022-09-28T16:04:44.630Z,7.97
2022-09-28T16:07:38.492Z,7.87
2022-09-28T16:10:06.155Z,7.87
2022-09-28T16:12:36.296Z,7.83
2022-09-28T16:15:26.519Z,7.85
2022-09-28T16:17:56.934Z,7.83
2022-09-28T16:20:34.074Z,7.85
2022-09-28T16:23:17.243Z,7.87
2022-09-28T16:25:53.827Z,7.84
2022-09-28T16:28:34.725Z,7.84
2022-09-28T16:31:12.485Z,7.85
2022-09-28T16:33:54.149Z,7.81
2022-09-28T16:36:24.610Z,7.84
2022-09-28T16:38:56.146Z,7.75
2022-09-28T16:41:27.850Z,7.84
2022-09-28T16:44:02.247Z,7.73
2022-09-28T16:46:39.194Z,7.75
2022-09-28T16:49:07.027Z,7.75
2022-09-28T16:51:35.538Z,7.70
2022-09-28T16:54:38.894Z,7.76
2022-09-28T16:57:08.054Z,7.71
2022-09-28T16:59:38.373Z,7.73
2022-09-28T17:02:42.112Z,7.63
2022-09-28T17:05:07.153Z,7.61
2022-09-28T17:07:34.669Z,7.57
2022-09-28T17:10:02.471Z,7.58
2022-09-28T17:12:29.794Z,7.51
2022-09-28T17:14:57.714Z,7.51
2022-09-28T17:17:32.915Z,7.48
2022-09-28T17:20:21.430Z,7.51
2022-09-28T17:22:50.822Z,7.51
2022-09-28T17:25:21.211Z,7.50
2022-09-28T17:27:49.449Z,7.44
2022-09-28T17:30:17.636Z,7.47
2022-09-28T17:32:47.812Z,7.51
2022-09-28T17:35:25.296Z,7.50
2022-09-28T17:37:52.784Z,7.46
2022-09-28T17:40:21.280Z,7.46
2022-09-28T17:42:48.489Z,7.42
2022-09-28T17:45:16.294Z,7.40
2022-09-28T17:47:46.337Z,7.39
2022-09-28T17:50:23.167Z,7.37
2022-09-28T17:52:52.615Z,7.37
2022-09-28T17:55:24.735Z,7.39
2022-09-28T17:57:52.034Z,7.42
2022-09-28T18:00:19.433Z,7.42
2022-09-28T18:02:46.937Z,7.44
2022-09-28T18:05:14.947Z,7.42
2022-09-28T18:07:47.277Z,7.45
2022-09-28T18:10:21.443Z,7.46
2022-09-28T18:12:50.241Z,7.45
2022-09-28T18:15:18.946Z,7.45
2022-09-28T18:17:46.486Z,7.44
2022-09-28T18:20:14.351Z,7.45
2022-09-28T18:22:41.620Z,7.46
2022-09-28T18:25:09.093Z,7.43
2022-09-28T18:27:36.301Z,7.40
2022-09-28T18:30:05.125Z,7.41
2022-09-28T18:32:37.142Z,7.42
2022-09-28T18:35:06.425Z,7.45
2022-09-28T18:37:38.262Z,7.45
2022-09-28T18:40:07.038Z,7.41
2022-09-28T18:42:35.786Z,7.45
2022-09-28T18:45:04.480Z,7.39
2022-09-28T18:47:33.236Z,7.38
2022-09-28T18:50:00.497Z,7.43
2022-09-28T18:52:28.053Z,7.37
2022-09-28T18:54:55.408Z,7.37
2022-09-28T18:57:22.722Z,7.32
2022-09-28T18:59:54.137Z,7.36
2022-09-28T19:02:26.323Z,7.35
2022-09-28T19:04:53.705Z,7.33
2022-09-28T19:07:21.347Z,7.29
2022-09-28T19:09:48.963Z,7.22
2022-09-28T19:12:17.341Z,7.18
2022-09-28T19:14:44.691Z,7.17
2022-09-28T19:17:12.136Z,7.20
2022-09-28T19:19:39.266Z,7.19
2022-09-28T19:22:06.553Z,7.19
2022-09-28T19:24:34.274Z,7.20
2022-09-28T19:27:02.262Z,7.18
2022-09-28T19:29:29.660Z,7.17
2022-09-28T19:31:58.052Z,7.13
2022-09-28T19:34:27.103Z,7.09
2022-09-28T19:36:54.316Z,7.11
2022-09-28T19:39:21.957Z,7.13
2022-09-28T19:41:52.512Z,7.09
2022-09-28T19:44:25.685Z,7.07
2022-09-28T19:46:58.077Z,7.02
2022-09-28T19:49:27.048Z,7.05
2022-09-28T19:52:12.865Z,7.04
2022-09-28T19:54:49.086Z,6.95
2022-09-28T19:57:16.387Z,6.88
2022-09-28T19:59:44.252Z,6.77
2022-09-28T20:02:11.926Z,6.73
2022-09-28T20:04:39.571Z,6.67
2022-09-28T20:07:06.868Z,6.69
2022-09-28T20:09:33.996Z,6.60
2022-09-28T20:12:01.505Z,6.54
2022-09-28T20:14:33.106Z,6.59
2022-09-28T20:17:03.972Z,6.52
2022-09-28T20:19:31.229Z,6.64
2022-09-28T20:22:02.097Z,6.54
2022-09-28T20:24:29.378Z,6.50
2022-09-28T20:26:56.822Z,6.49
2022-09-28T20:29:24.518Z,6.51
2022-09-28T20:31:52.080Z,6.39
2022-09-28T20:34:19.439Z,6.48
2022-09-28T20:36:46.671Z,6.43
2022-09-28T20:39:14.024Z,6.38
2022-09-28T20:41:41.457Z,6.35
2022-09-28T20:44:09.593Z,6.35
2022-09-28T20:46:38.209Z,6.27
2022-09-28T20:49:05.738Z,6.25
2022-09-28T20:51:33.042Z,6.22
2022-09-28T20:54:00.544Z,6.22
2022-09-28T20:56:37.787Z,6.17
2022-09-28T20:59:10.541Z,6.14
2022-09-28T21:01:38.172Z,6.10
2022-09-28T21:04:07.236Z,6.08
2022-09-28T21:06:37.825Z,6.14
2022-09-28T21:09:06.873Z,6.27
2022-09-28T21:11:35.911Z,6.27
2022-09-28T21:14:06.458Z,6.25
2022-09-28T21:16:35.521Z,6.23
2022-09-28T21:19:03.629Z,6.18
2022-09-28T21:21:31.493Z,6.11
2022-09-28T21:23:59.213Z,6.10
2022-09-28T21:26:28.842Z,6.13
2022-09-28T21:29:01.194Z,6.13
2022-09-28T21:31:39.685Z,6.11
2022-09-28T21:34:13.209Z,6.14
2022-09-28T21:36:43.248Z,6.04
2022-09-28T21:39:10.837Z,6.03
2022-09-28T21:41:38.202Z,6.08
2022-09-28T21:44:05.845Z,6.03
2022-09-28T21:46:36.521Z,6.04
2022-09-28T21:49:06.434Z,6.02
2022-09-28T21:51:34.784Z,6.09
2022-09-28T21:54:02.021Z,6.02
2022-09-28T21:56:29.377Z,6.00
2022-09-28T21:58:56.747Z,6.01
2022-09-28T22:01:25.663Z,5.93
2022-09-28T22:03:56.506Z,5.96
2022-09-28T22:06:27.957Z,5.88
2022-09-28T22:08:55.569Z,5.89
2022-09-28T22:11:25.396Z,5.87
2022-09-28T22:13:56.003Z,5.93
2022-09-28T22:16:25.503Z,5.96
2022-09-28T22:18:52.871Z,5.99
2022-09-28T22:21:22.831Z,5.99
2022-09-28T22:23:50.463Z,6.05
2022-09-28T22:26:23.819Z,6.13
2022-09-28T22:28:54.015Z,6.13
2022-09-28T22:31:27.264Z,6.05
2022-09-28T22:33:54.767Z,6.00
2022-09-28T22:36:22.229Z,6.03
2022-09-28T22:38:49.945Z,5.98
2022-09-28T22:41:22.155Z,5.94
2022-09-28T22:43:50.975Z,5.99
2022-09-28T22:46:21.192Z,5.97
2022-09-28T22:48:56.375Z,5.92
2022-09-28T22:51:24.745Z,5.92
2022-09-28T22:53:52.398Z,5.87
2022-09-28T22:56:19.657Z,6.00
2022-09-28T22:58:47.415Z,5.92
2022-09-28T23:01:17.274Z,5.89
2022-09-28T23:03:44.934Z,5.87
2022-09-28T23:06:15.017Z,5.86
2022-09-28T23:08:44.469Z,5.84
2022-09-28T23:11:11.760Z,5.80
2022-09-28T23:13:38.972Z,5.79
2022-09-28T23:16:10.318Z,5.61
2022-09-28T23:18:40.958Z,5.62
2022-09-28T23:21:12.605Z,5.52
2022-09-28T23:23:39.881Z,5.52
2022-09-28T23:26:11.577Z,5.45
2022-09-28T23:28:38.771Z,5.52
2022-09-28T23:31:16.327Z,5.49
2022-09-28T23:33:43.641Z,5.51
2022-09-28T23:36:11.480Z,5.38
2022-09-28T23:38:40.042Z,5.39
2022-09-28T23:41:07.874Z,5.33
2022-09-28T23:43:36.258Z,5.26
2022-09-28T23:46:04.733Z,5.24
2022-09-28T23:48:32.983Z,5.20
2022-09-28T23:51:00.184Z,5.23
2022-09-28T23:53:27.655Z,5.25
2022-09-28T23:55:55.054Z,5.24
2022-09-28T23:58:22.713Z,5.22
